sensor_id;sensor_type;location;lat;lon;timestamp;pressure;altitude;pressure_sealevel;temperature;humidity
16664;BME280;8445;51.270;9.434;2023-02-12T00:00:47;101486.03;;;6.41;79.61
16664;BME280;8445;51.270;9.434;2023-02-12T00:03:13;101499.06;;;6.46;79.18
16664;BME280;8445;51.270;9.434;2023-02-12T00:05:39;101486.72;;;6.48;78.07
16664;BME280;8445;51.270;9.434;2023-02-12T00:08:07;101498.91;;;6.52;76.42
16664;BME280;8445;51.270;9.434;2023-02-12T00:10:33;101500.59;;;6.55;77.06
16664;BME280;8445;51.270;9.434;2023-02-12T00:12:59;101491.75;;;6.57;76.29
16664;BME280;8445;51.270;9.434;2023-02-12T00:15:24;101507.53;;;6.57;75.96
16664;BME280;8445;51.270;9.434;2023-02-12T00:17:49;101503.19;;;6.56;77.08
16664;BME280;8445;51.270;9.434;2023-02-12T00:20:18;101508.34;;;6.61;83.19
16664;BME280;8445;51.270;9.434;2023-02-12T00:22:43;101500.84;;;6.80;79.19
16664;BME280;8445;51.270;9.434;2023-02-12T00:25:09;101497.16;;;6.86;77.70
16664;BME280;8445;51.270;9.434;2023-02-12T00:27:35;101500.53;;;6.91;77.73
16664;BME280;8445;51.270;9.434;2023-02-12T00:30:01;101501.38;;;6.93;77.43
16664;BME280;8445;51.270;9.434;2023-02-12T00:32:26;101506.59;;;6.94;77.09
16664;BME280;8445;51.270;9.434;2023-02-12T00:34:52;101511.88;;;6.94;76.83
16664;BME280;8445;51.270;9.434;2023-02-12T00:37:17;101501.19;;;7.01;76.99
16664;BME280;8445;51.270;9.434;2023-02-12T00:39:43;101502.81;;;7.05;76.43
16664;BME280;8445;51.270;9.434;2023-02-12T00:42:09;101502.81;;;7.05;76.48
16664;BME280;8445;51.270;9.434;2023-02-12T00:44:35;101506.25;;;7.07;75.93
16664;BME280;8445;51.270;9.434;2023-02-12T00:47:02;101501.81;;;7.09;75.87
16664;BME280;8445;51.270;9.434;2023-02-12T00:49:29;101504.41;;;7.10;77.01
16664;BME280;8445;51.270;9.434;2023-02-12T00:51:59;101509.69;;;7.10;78.27
16664;BME280;8445;51.270;9.434;2023-02-12T00:54:25;101507.91;;;7.11;77.01
16664;BME280;8445;51.270;9.434;2023-02-12T00:56:50;101508.84;;;7.08;78.03
16664;BME280;8445;51.270;9.434;2023-02-12T00:59:16;101503.69;;;7.05;77.08
16664;BME280;8445;51.270;9.434;2023-02-12T01:01:43;101507.28;;;7.01;76.76
16664;BME280;8445;51.270;9.434;2023-02-12T01:04:09;101508.19;;;7.00;77.71
16664;BME280;8445;51.270;9.434;2023-02-12T01:06:34;101502.91;;;7.02;77.07
16664;BME280;8445;51.270;9.434;2023-02-12T01:09:00;101504.75;;;6.98;77.20
16664;BME280;8445;51.270;9.434;2023-02-12T01:11:26;101511.88;;;6.94;77.28
16664;BME280;8445;51.270;9.434;2023-02-12T01:13:52;101516.41;;;6.88;78.03
16664;BME280;8445;51.270;9.434;2023-02-12T01:16:21;101516.41;;;6.88;77.36
16664;BME280;8445;51.270;9.434;2023-02-12T01:18:48;101513.84;;;6.86;77.48
16664;BME280;8445;51.270;9.434;2023-02-12T01:21:19;101511.22;;;6.85;76.70
16664;BME280;8445;51.270;9.434;2023-02-12T01:23:46;101510.47;;;6.81;76.90
16664;BME280;8445;51.270;9.434;2023-02-12T01:26:12;101511.31;;;6.81;76.60
16664;BME280;8445;51.270;9.434;2023-02-12T01:28:40;101503.47;;;6.80;77.19
16664;BME280;8445;51.270;9.434;2023-02-12T01:31:13;101500.84;;;6.80;77.90
16664;BME280;8445;51.270;9.434;2023-02-12T01:33:39;101508.72;;;6.80;77.32
16664;BME280;8445;51.270;9.434;2023-02-12T01:36:05;101512.22;;;6.80;76.16
16664;BME280;8445;51.270;9.434;2023-02-12T01:38:31;101508.72;;;6.80;76.71
16664;BME280;8445;51.270;9.434;2023-02-12T01:41:14;101511.31;;;6.81;77.73
16664;BME280;8445;51.270;9.434;2023-02-12T01:43:40;101511.38;;;6.78;76.69
16664;BME280;8445;51.270;9.434;2023-02-12T01:46:10;101507.97;;;6.76;76.75
16664;BME280;8445;51.270;9.434;2023-02-12T01:48:39;101509.66;;;6.77;77.17
16664;BME280;8445;51.270;9.434;2023-02-12T01:51:08;101509.72;;;6.76;76.62
16664;BME280;8445;51.270;9.434;2023-02-12T01:53:42;101507.06;;;6.76;76.52
16664;BME280;8445;51.270;9.434;2023-02-12T01:56:10;101503.63;;;6.74;76.25
16664;BME280;8445;51.270;9.434;2023-02-12T01:58:38;101501.91;;;6.73;76.14
16664;BME280;8445;51.270;9.434;2023-02-12T02:01:11;101496.69;;;6.71;76.45
16664;BME280;8445;51.270;9.434;2023-02-12T02:03:38;101499.34;;;6.70;76.69
16664;BME280;8445;51.270;9.434;2023-02-12T02:06:10;101506.34;;;6.71;76.90
16664;BME280;8445;51.270;9.434;2023-02-12T02:08:37;101498.44;;;6.71;77.06
16664;BME280;8445;51.270;9.434;2023-02-12T02:11:03;101505.44;;;6.72;77.23
16664;BME280;8445;51.270;9.434;2023-02-12T02:13:48;101497.50;;;6.73;77.25
16664;BME280;8445;51.270;9.434;2023-02-12T02:16:33;101498.44;;;6.71;76.41
16664;BME280;8445;51.270;9.434;2023-02-12T02:27:48;101493.88;;;6.77;77.73
16664;BME280;8445;51.270;9.434;2023-02-12T02:30:28;101493.03;;;6.77;77.66
16664;BME280;8445;51.270;9.434;2023-02-12T02:33:10;101497.44;;;6.76;77.28
16664;BME280;8445;51.270;9.434;2023-02-12T02:36:09;101493.19;;;6.71;77.36
16664;BME280;8445;51.270;9.434;2023-02-12T02:38:53;101488.00;;;6.67;77.79
16664;BME280;8445;51.270;9.434;2023-02-12T02:47:40;101488.00;;;6.67;77.80
16664;BME280;8445;51.270;9.434;2023-02-12T02:50:11;101484.53;;;6.65;77.45
16664;BME280;8445;51.270;9.434;2023-02-12T02:52:52;101486.28;;;6.66;77.38
16664;BME280;8445;51.270;9.434;2023-02-12T02:55:24;101481.06;;;6.65;77.36
16664;BME280;8445;51.270;9.434;2023-02-12T02:58:06;101481.00;;;6.66;77.21
16664;BME280;8445;51.270;9.434;2023-02-12T03:05:59;101487.25;;;6.62;77.47
16664;BME280;8445;51.270;9.434;2023-02-12T03:08:36;101481.09;;;6.63;77.75
16664;BME280;8445;51.270;9.434;2023-02-12T03:11:15;101479.34;;;6.62;77.54
16664;BME280;8445;51.270;9.434;2023-02-12T03:13:47;101473.25;;;6.62;77.20
16664;BME280;8445;51.270;9.434;2023-02-12T03:16:19;101473.31;;;6.59;77.41
16664;BME280;8445;51.270;9.434;2023-02-12T03:18:55;101483.84;;;6.59;78.05
16664;BME280;8445;51.270;9.434;2023-02-12T03:21:57;101481.00;;;6.66;78.58
16664;BME280;8445;51.270;9.434;2023-02-12T03:24:40;101485.38;;;6.67;77.96
16664;BME280;8445;51.270;9.434;2023-02-12T03:27:30;101484.47;;;6.68;78.39
16664;BME280;8445;51.270;9.434;2023-02-12T03:29:56;101482.75;;;6.67;77.88
16664;BME280;8445;51.270;9.434;2023-02-12T03:32:28;101486.25;;;6.68;78.09
16664;BME280;8445;51.270;9.434;2023-02-12T03:37:30;101495.03;;;6.67;78.32
16664;BME280;8445;51.270;9.434;2023-02-12T03:40:17;101489.66;;;6.72;79.20
16664;BME280;8445;51.270;9.434;2023-02-12T03:45:48;101494.91;;;6.72;78.78
16664;BME280;8445;51.270;9.434;2023-02-12T03:48:22;101502.84;;;6.70;78.54
16664;BME280;8445;51.270;9.434;2023-02-12T03:53:19;101494.91;;;6.72;78.39
16664;BME280;8445;51.270;9.434;2023-02-12T03:55:48;101501.91;;;6.73;78.71
16664;BME280;8445;51.270;9.434;2023-02-12T03:58:19;101494.97;;;6.70;78.69
16664;BME280;8445;51.270;9.434;2023-02-12T04:00:45;101507.22;;;6.71;78.38
16664;BME280;8445;51.270;9.434;2023-02-12T04:03:11;101499.31;;;6.71;78.29
16664;BME280;8445;51.270;9.434;2023-02-12T04:05:37;101497.59;;;6.70;77.86
16664;BME280;8445;51.270;9.434;2023-02-12T04:08:06;101505.59;;;6.65;77.92
16664;BME280;8445;51.270;9.434;2023-02-12T04:10:59;101502.06;;;6.66;79.19
16664;BME280;8445;51.270;9.434;2023-02-12T04:13:49;101514.28;;;6.67;79.02
16664;BME280;8445;51.270;9.434;2023-02-12T04:16:25;101510.81;;;6.67;78.63
16664;BME280;8445;51.270;9.434;2023-02-12T04:18:54;101512.50;;;6.70;78.44
16664;BME280;8445;51.270;9.434;2023-02-12T04:21:43;101521.25;;;6.70;78.13
16664;BME280;8445;51.270;9.434;2023-02-12T04:27:25;101523.31;;;6.57;79.60
16664;BME280;8445;51.270;9.434;2023-02-12T04:30:02;101530.22;;;6.61;79.53
16664;BME280;8445;51.270;9.434;2023-02-12T04:35:26;101525.72;;;6.66;78.91
16664;BME280;8445;51.270;9.434;2023-02-12T04:38:13;101523.09;;;6.66;78.98
16664;BME280;8445;51.270;9.434;2023-02-12T04:40:42;101538.88;;;6.66;78.87
16664;BME280;8445;51.270;9.434;2023-02-12T04:43:08;101540.66;;;6.64;78.52
16664;BME280;8445;51.270;9.434;2023-02-12T04:45:35;101545.97;;;6.63;79.16
16664;BME280;8445;51.270;9.434;2023-02-12T04:48:01;101546.88;;;6.62;78.46
16664;BME280;8445;51.270;9.434;2023-02-12T04:50:35;101548.63;;;6.61;78.87
16664;BME280;8445;51.270;9.434;2023-02-12T04:53:01;101541.56;;;6.63;78.86
16664;BME280;8445;51.270;9.434;2023-02-12T04:55:27;101538.03;;;6.64;78.78
16664;BME280;8445;51.270;9.434;2023-02-12T04:57:52;101541.56;;;6.65;78.74
16664;BME280;8445;51.270;9.434;2023-02-12T05:00:18;101545.03;;;6.65;78.84
16664;BME280;8445;51.270;9.434;2023-02-12T05:02:43;101547.66;;;6.65;78.81
16664;BME280;8445;51.270;9.434;2023-02-12T05:05:09;101541.50;;;6.66;78.65
16664;BME280;8445;51.270;9.434;2023-02-12T05:07:34;101537.94;;;6.69;78.17
16664;BME280;8445;51.270;9.434;2023-02-12T05:09:59;101543.22;;;6.67;77.95
16664;BME280;8445;51.270;9.434;2023-02-12T05:12:25;101544.19;;;6.63;78.34
16664;BME280;8445;51.270;9.434;2023-02-12T05:14:50;101537.28;;;6.61;78.10
16664;BME280;8445;51.270;9.434;2023-02-12T05:17:16;101536.44;;;6.59;77.98
16664;BME280;8445;51.270;9.434;2023-02-12T05:19:41;101538.19;;;6.58;78.43
16664;BME280;8445;51.270;9.434;2023-02-12T05:22:07;101539.09;;;6.57;78.41
16664;BME280;8445;51.270;9.434;2023-02-12T05:24:32;101535.63;;;6.55;78.80
16664;BME280;8445;51.270;9.434;2023-02-12T05:26:57;101531.25;;;6.56;78.53
16664;BME280;8445;51.270;9.434;2023-02-12T05:29:23;101539.16;;;6.54;78.54
16664;BME280;8445;51.270;9.434;2023-02-12T05:31:48;101530.53;;;6.49;78.47
16664;BME280;8445;51.270;9.434;2023-02-12T05:34:14;101541.16;;;6.46;78.36
16664;BME280;8445;51.270;9.434;2023-02-12T05:36:39;101535.97;;;6.43;78.37
16664;BME280;8445;51.270;9.434;2023-02-12T05:39:05;101542.88;;;6.47;78.66
16664;BME280;8445;51.270;9.434;2023-02-12T05:41:31;101543.78;;;6.46;78.47
16664;BME280;8445;51.270;9.434;2023-02-12T05:44:00;101535.88;;;6.46;78.94
16664;BME280;8445;51.270;9.434;2023-02-12T05:46:26;101544.56;;;6.48;79.11
16664;BME280;8445;51.270;9.434;2023-02-12T05:48:51;101542.00;;;6.46;79.02
16664;BME280;8445;51.270;9.434;2023-02-12T05:51:20;101545.44;;;6.48;78.96
16664;BME280;8445;51.270;9.434;2023-02-12T05:53:47;101554.16;;;6.50;78.95
16664;BME280;8445;51.270;9.434;2023-02-12T05:56:19;101548.84;;;6.52;79.05
16664;BME280;8445;51.270;9.434;2023-02-12T05:58:48;101556.66;;;6.55;78.86
16664;BME280;8445;51.270;9.434;2023-02-12T06:01:22;101554.03;;;6.55;79.27
16664;BME280;8445;51.270;9.434;2023-02-12T06:03:48;101549.69;;;6.54;78.69
16664;BME280;8445;51.270;9.434;2023-02-12T06:06:13;101551.47;;;6.52;78.81
16664;BME280;8445;51.270;9.434;2023-02-12T06:08:39;101550.59;;;6.53;79.18
16664;BME280;8445;51.270;9.434;2023-02-12T06:11:07;101556.75;;;6.52;79.17
16664;BME280;8445;51.270;9.434;2023-02-12T06:13:34;101558.47;;;6.53;79.26
16664;BME280;8445;51.270;9.434;2023-02-12T06:16:00;101556.66;;;6.55;79.29
16664;BME280;8445;51.270;9.434;2023-02-12T06:18:26;101564.53;;;6.57;79.21
16664;BME280;8445;51.270;9.434;2023-02-12T06:20:51;101563.66;;;6.56;79.11
16664;BME280;8445;51.270;9.434;2023-02-12T06:23:21;101569.75;;;6.58;79.34
16664;BME280;8445;51.270;9.434;2023-02-12T06:25:48;101562.75;;;6.59;79.08
16664;BME280;8445;51.270;9.434;2023-02-12T06:28:14;101564.53;;;6.57;79.26
16664;BME280;8445;51.270;9.434;2023-02-12T06:30:39;101569.81;;;6.55;78.95
16664;BME280;8445;51.270;9.434;2023-02-12T06:33:05;101576.88;;;6.53;79.31
16664;BME280;8445;51.270;9.434;2023-02-12T06:35:30;101573.34;;;6.54;79.73
16664;BME280;8445;51.270;9.434;2023-02-12T06:37:59;101578.59;;;6.54;79.56
16664;BME280;8445;51.270;9.434;2023-02-12T06:40:24;101581.25;;;6.54;79.43
16664;BME280;8445;51.270;9.434;2023-02-12T06:42:50;101584.69;;;6.56;79.31
16664;BME280;8445;51.270;9.434;2023-02-12T06:45:15;101582.13;;;6.53;79.30
16664;BME280;8445;51.270;9.434;2023-02-12T06:47:40;101590.91;;;6.53;79.46
16664;BME280;8445;51.270;9.434;2023-02-12T06:50:06;101588.22;;;6.55;80.16
16664;BME280;8445;51.270;9.434;2023-02-12T06:52:31;101588.16;;;6.58;79.70
16664;BME280;8445;51.270;9.434;2023-02-12T06:54:57;101600.41;;;6.59;79.95
16664;BME280;8445;51.270;9.434;2023-02-12T06:57:22;101607.44;;;6.59;79.50
16664;BME280;8445;51.270;9.434;2023-02-12T06:59:48;101602.97;;;6.62;79.78
16664;BME280;8445;51.270;9.434;2023-02-12T07:02:14;101604.69;;;6.63;79.84
16664;BME280;8445;51.270;9.434;2023-02-12T07:04:39;101607.31;;;6.63;79.78
16664;BME280;8445;51.270;9.434;2023-02-12T07:07:05;101610.84;;;6.62;79.84
16664;BME280;8445;51.270;9.434;2023-02-12T07:09:30;101606.34;;;6.67;80.00
16664;BME280;8445;51.270;9.434;2023-02-12T07:11:59;101612.38;;;6.73;80.12
16664;BME280;8445;51.270;9.434;2023-02-12T07:14:25;101611.34;;;6.78;80.10
16664;BME280;8445;51.270;9.434;2023-02-12T07:16:55;101613.91;;;6.81;80.68
16664;BME280;8445;51.270;9.434;2023-02-12T07:19:21;101612.00;;;6.88;80.51
16664;BME280;8445;51.270;9.434;2023-02-12T07:21:49;101620.66;;;6.93;80.63
16664;BME280;8445;51.270;9.434;2023-02-12T07:24:14;101620.56;;;6.96;80.11
16664;BME280;8445;51.270;9.434;2023-02-12T07:26:43;101618.69;;;7.02;80.44
16664;BME280;8445;51.270;9.434;2023-02-12T07:29:09;101619.47;;;7.05;80.22
16664;BME280;8445;51.270;9.434;2023-02-12T07:31:35;101623.75;;;7.09;80.34
16664;BME280;8445;51.270;9.434;2023-02-12T07:34:00;101626.31;;;7.12;80.99
16664;BME280;8445;51.270;9.434;2023-02-12T07:36:28;101621.75;;;7.19;80.98
16664;BME280;8445;51.270;9.434;2023-02-12T07:38:54;101633.03;;;7.24;80.97
16664;BME280;8445;51.270;9.434;2023-02-12T07:41:26;101628.50;;;7.30;80.85
16664;BME280;8445;51.270;9.434;2023-02-12T07:43:55;101638.97;;;7.33;80.44
16664;BME280;8445;51.270;9.434;2023-02-12T07:46:32;101630.97;;;7.36;81.04
16664;BME280;8445;51.270;9.434;2023-02-12T07:49:03;101633.53;;;7.39;80.82
16664;BME280;8445;51.270;9.434;2023-02-12T07:51:31;101638.63;;;7.45;81.00
16664;BME280;8445;51.270;9.434;2023-02-12T07:53:57;101633.13;;;7.54;80.73
16664;BME280;8445;51.270;9.434;2023-02-12T07:56:27;101639.09;;;7.61;80.43
16664;BME280;8445;51.270;9.434;2023-02-12T07:58:55;101637.19;;;7.66;80.39
16664;BME280;8445;51.270;9.434;2023-02-12T08:01:26;101638.03;;;7.67;80.28
16664;BME280;8445;51.270;9.434;2023-02-12T08:03:53;101642.31;;;7.71;81.00
16664;BME280;8445;51.270;9.434;2023-02-12T08:06:24;101645.69;;;7.76;81.42
16664;BME280;8445;51.270;9.434;2023-02-12T08:08:52;101649.88;;;7.83;81.25
16664;BME280;8445;51.270;9.434;2023-02-12T08:11:18;101651.53;;;7.88;81.50
16664;BME280;8445;51.270;9.434;2023-02-12T08:13:44;101654.81;;;7.96;81.68
16664;BME280;8445;51.270;9.434;2023-02-12T08:16:15;101658.91;;;8.06;81.63
16664;BME280;8445;51.270;9.434;2023-02-12T08:18:41;101655.13;;;8.16;81.23
16664;BME280;8445;51.270;9.434;2023-02-12T08:21:26;101650.28;;;8.31;81.39
16664;BME280;8445;51.270;9.434;2023-02-12T08:23:55;101648.28;;;8.39;81.84
16664;BME280;8445;51.270;9.434;2023-02-12T08:26:33;101657.47;;;8.56;81.64
16664;BME280;8445;51.270;9.434;2023-02-12T08:29:02;101652.78;;;8.66;81.48
16664;BME280;8445;51.270;9.434;2023-02-12T08:31:33;101661.19;;;8.79;81.79
16664;BME280;8445;51.270;9.434;2023-02-12T08:33:59;101653.66;;;8.93;81.59
16664;BME280;8445;51.270;9.434;2023-02-12T08:36:29;101655.72;;;9.12;81.69
16664;BME280;8445;51.270;9.434;2023-02-12T08:38:57;101650.06;;;9.23;81.05
16664;BME280;8445;51.270;9.434;2023-02-12T08:41:25;101654.28;;;9.28;80.89
16664;BME280;8445;51.270;9.434;2023-02-12T08:43:56;101654.06;;;9.34;80.65
16664;BME280;8445;51.270;9.434;2023-02-12T08:46:43;101658.91;;;9.47;80.87
16664;BME280;8445;51.270;9.434;2023-02-12T08:49:13;101655.25;;;9.51;80.96
16664;BME280;8445;51.270;9.434;2023-02-12T08:51:44;101656.88;;;9.55;80.92
16664;BME280;8445;51.270;9.434;2023-02-12T08:54:14;101663.06;;;9.54;80.92
16664;BME280;8445;51.270;9.434;2023-02-12T08:56:40;101667.44;;;9.55;81.39
16664;BME280;8445;51.270;9.434;2023-02-12T08:59:10;101663.78;;;9.59;81.21
16664;BME280;8445;51.270;9.434;2023-02-12T09:01:36;101668.84;;;9.66;81.56
16664;BME280;8445;51.270;9.434;2023-02-12T09:04:04;101661.50;;;9.74;81.36
16664;BME280;8445;51.270;9.434;2023-02-12T09:06:32;101664.16;;;9.74;81.71
16664;BME280;8445;51.270;9.434;2023-02-12T09:08:58;101662.09;;;9.82;82.07
16664;BME280;8445;51.270;9.434;2023-02-12T09:11:26;101665.22;;;9.93;82.25
16664;BME280;8445;51.270;9.434;2023-02-12T09:14:00;101672.78;;;10.03;82.21
16664;BME280;8445;51.270;9.434;2023-02-12T09:16:30;101679.34;;;10.16;82.20
16664;BME280;8445;51.270;9.434;2023-02-12T09:18:56;101673.78;;;10.24;82.21
16664;BME280;8445;51.270;9.434;2023-02-12T09:21:22;101673.38;;;10.35;82.45
16664;BME280;8445;51.270;9.434;2023-02-12T09:23:48;101671.91;;;10.51;82.65
16664;BME280;8445;51.270;9.434;2023-02-12T09:26:16;101673.94;;;10.67;82.25
16664;BME280;8445;51.270;9.434;2023-02-12T09:28:42;101661.81;;;10.83;82.27
16664;BME280;8445;51.270;9.434;2023-02-12T09:31:19;101669.25;;;10.96;81.62
16664;BME280;8445;51.270;9.434;2023-02-12T09:33:47;101663.72;;;11.02;80.98
16664;BME280;8445;51.270;9.434;2023-02-12T09:36:15;101668.22;;;11.00;80.12
16664;BME280;8445;51.270;9.434;2023-02-12T09:38:41;101675.28;;;11.00;80.86
16664;BME280;8445;51.270;9.434;2023-02-12T09:44:08;101681.00;;;11.11;80.95
16664;BME280;8445;51.270;9.434;2023-02-12T09:49:17;101678.22;;;11.14;80.38
16664;BME280;8445;51.270;9.434;2023-02-12T09:51:48;101681.63;;;11.18;80.51
16664;BME280;8445;51.270;9.434;2023-02-12T09:54:18;101677.63;;;11.28;80.99
16664;BME280;8445;51.270;9.434;2023-02-12T09:56:48;101684.66;;;11.29;80.29
16664;BME280;8445;51.270;9.434;2023-02-12T10:01:50;101688.50;;;11.22;81.29
16664;BME280;8445;51.270;9.434;2023-02-12T10:04:24;101680.84;;;11.16;81.83
16664;BME280;8445;51.270;9.434;2023-02-12T10:07:16;101695.81;;;11.17;81.94
16664;BME280;8445;51.270;9.434;2023-02-12T10:15:14;101692.34;;;11.35;81.69
16664;BME280;8445;51.270;9.434;2023-02-12T10:20:35;101698.13;;;11.24;80.68
16664;BME280;8445;51.270;9.434;2023-02-12T10:26:24;101687.00;;;10.94;80.52
16664;BME280;8445;51.270;9.434;2023-02-12T10:29:10;101690.69;;;10.90;81.20
16664;BME280;8445;51.270;9.434;2023-02-12T10:31:43;101686.19;;;10.92;81.60
16664;BME280;8445;51.270;9.434;2023-02-12T10:34:17;101695.88;;;10.93;80.98
16664;BME280;8445;51.270;9.434;2023-02-12T10:36:47;101687.13;;;10.91;81.32
16664;BME280;8445;51.270;9.434;2023-02-12T10:39:21;101685.28;;;10.93;80.72
16664;BME280;8445;51.270;9.434;2023-02-12T10:44:27;101692.63;;;10.86;80.41
16664;BME280;8445;51.270;9.434;2023-02-12T10:46:53;101694.38;;;10.86;80.38
16664;BME280;8445;51.270;9.434;2023-02-12T10:49:19;101694.38;;;10.86;80.05
16664;BME280;8445;51.270;9.434;2023-02-12T10:52:01;101690.78;;;10.88;79.42
16664;BME280;8445;51.270;9.434;2023-02-12T10:54:33;101686.44;;;10.86;79.18
16664;BME280;8445;51.270;9.434;2023-02-12T10:57:07;101695.63;;;10.77;79.72
16664;BME280;8445;51.270;9.434;2023-02-12T10:59:34;101693.13;;;10.72;79.75
16664;BME280;8445;51.270;9.434;2023-02-12T11:02:01;101698.66;;;10.66;79.66
16664;BME280;8445;51.270;9.434;2023-02-12T11:04:34;101689.81;;;10.67;79.86
16664;BME280;8445;51.270;9.434;2023-02-12T11:07:07;101695.09;;;10.67;79.71
16664;BME280;8445;51.270;9.434;2023-02-12T11:09:46;101690.94;;;10.61;79.90
16664;BME280;8445;51.270;9.434;2023-02-12T11:12:48;101697.25;;;10.57;79.30
16664;BME280;8445;51.270;9.434;2023-02-12T11:15:19;101692.16;;;10.52;79.58
16664;BME280;8445;51.270;9.434;2023-02-12T11:18:03;101688.69;;;10.50;79.51
16664;BME280;8445;51.270;9.434;2023-02-12T11:20:36;101688.19;;;10.41;79.61
16664;BME280;8445;51.270;9.434;2023-02-12T11:23:06;101689.44;;;10.30;79.56
16664;BME280;8445;51.270;9.434;2023-02-12T11:29:04;101684.41;;;10.22;80.05
16664;BME280;8445;51.270;9.434;2023-02-12T11:31:41;101690.47;;;10.26;80.28
16664;BME280;8445;51.270;9.434;2023-02-12T11:36:45;101684.75;;;10.37;80.17
16664;BME280;8445;51.270;9.434;2023-02-12T11:39:35;101691.50;;;10.46;80.05
16664;BME280;8445;51.270;9.434;2023-02-12T11:42:16;101682.53;;;10.50;80.04
16664;BME280;8445;51.270;9.434;2023-02-12T11:44:47;101682.31;;;10.56;80.17
16664;BME280;8445;51.270;9.434;2023-02-12T11:47:23;101684.75;;;10.61;79.87
16664;BME280;8445;51.270;9.434;2023-02-12T11:49:56;101676.09;;;10.57;80.02
16664;BME280;8445;51.270;9.434;2023-02-12T11:52:28;101680.47;;;10.58;80.00
16664;BME280;8445;51.270;9.434;2023-02-12T11:54:59;101677.25;;;10.50;80.17
16664;BME280;8445;51.270;9.434;2023-02-12T11:57:44;101674.56;;;10.51;80.54
16664;BME280;8445;51.270;9.434;2023-02-12T12:03:12;101679.78;;;10.53;80.40
16664;BME280;8445;51.270;9.434;2023-02-12T12:05:50;101677.25;;;10.50;80.20
16664;BME280;8445;51.270;9.434;2023-02-12T12:08:35;101678.84;;;10.54;80.10
16664;BME280;8445;51.270;9.434;2023-02-12T12:11:12;101676.16;;;10.56;80.14
16664;BME280;8445;51.270;9.434;2023-02-12T12:13:51;101676.16;;;10.56;80.00
16664;BME280;8445;51.270;9.434;2023-02-12T12:19:42;101666.22;;;10.61;80.46
16664;BME280;8445;51.270;9.434;2023-02-12T12:22:34;101669.56;;;10.66;79.85
16664;BME280;8445;51.270;9.434;2023-02-12T12:25:35;101664.94;;;10.71;79.82
16664;BME280;8445;51.270;9.434;2023-02-12T12:33:45;101661.25;;;10.75;78.62
16664;BME280;8445;51.270;9.434;2023-02-12T12:38:59;101645.25;;;10.78;78.75
16664;BME280;8445;51.270;9.434;2023-02-12T12:50:01;101644.56;;;10.73;78.27
16664;BME280;8445;51.270;9.434;2023-02-12T12:58:32;101644.75;;;10.46;78.91
16664;BME280;8445;51.270;9.434;2023-02-12T13:20:25;101633.94;;;10.52;79.00
16664;BME280;8445;51.270;9.434;2023-02-12T13:23:14;101631.69;;;10.42;79.34
16664;BME280;8445;51.270;9.434;2023-02-12T13:28:42;101626.72;;;10.32;79.51
16664;BME280;8445;51.270;9.434;2023-02-12T13:31:13;101627.25;;;10.18;79.36
16664;BME280;8445;51.270;9.434;2023-02-12T13:33:45;101625.88;;;10.08;79.88
16664;BME280;8445;51.270;9.434;2023-02-12T13:36:14;101628.91;;;9.99;80.62
16664;BME280;8445;51.270;9.434;2023-02-12T13:38:44;101636.03;;;9.97;80.65
16664;BME280;8445;51.270;9.434;2023-02-12T13:41:10;101632.56;;;9.94;80.85
16664;BME280;8445;51.270;9.434;2023-02-12T13:46:34;101630.16;;;9.88;80.70
16664;BME280;8445;51.270;9.434;2023-02-12T13:49:20;101630.97;;;9.90;80.72
16664;BME280;8445;51.270;9.434;2023-02-12T13:52:28;101627.41;;;9.91;80.48
16664;BME280;8445;51.270;9.434;2023-02-12T13:55:23;101625.50;;;9.95;80.39
16664;BME280;8445;51.270;9.434;2023-02-12T14:01:43;101626.63;;;9.88;80.12
16664;BME280;8445;51.270;9.434;2023-02-12T14:03:50;101620.94;;;9.75;80.19
16664;BME280;8445;51.270;9.434;2023-02-12T14:06:20;101613.25;;;9.69;80.38
16664;BME280;8445;51.270;9.434;2023-02-12T14:08:50;101614.16;;;9.68;80.55
16664;BME280;8445;51.270;9.434;2023-02-12T14:11:21;101603.59;;;9.68;80.73
16664;BME280;8445;51.270;9.434;2023-02-12T14:13:55;101606.31;;;9.66;80.65
16664;BME280;8445;51.270;9.434;2023-02-12T14:22:09;101614.44;;;9.60;79.85
16664;BME280;8445;51.270;9.434;2023-02-12T14:27:20;101616.53;;;9.50;80.11
16664;BME280;8445;51.270;9.434;2023-02-12T14:40:52;101615.63;;;9.26;79.33
16664;BME280;8445;51.270;9.434;2023-02-12T14:51:51;101619.44;;;9.17;79.29
16664;BME280;8445;51.270;9.434;2023-02-12T14:54:36;101617.63;;;9.19;79.47
16664;BME280;8445;51.270;9.434;2023-02-12T14:57:23;101619.34;;;9.20;79.32
16664;BME280;8445;51.270;9.434;2023-02-12T14:59:53;101616.63;;;9.22;78.78
16664;BME280;8445;51.270;9.434;2023-02-12T15:02:25;101619.25;;;9.23;78.92
16664;BME280;8445;51.270;9.434;2023-02-12T15:04:53;101614.88;;;9.22;78.38
16664;BME280;8445;51.270;9.434;2023-02-12T15:07:36;101615.69;;;9.24;78.72
16664;BME280;8445;51.270;9.434;2023-02-12T15:10:15;101626.25;;;9.24;78.75
16664;BME280;8445;51.270;9.434;2023-02-12T15:12:45;101627.19;;;9.22;78.05
16664;BME280;8445;51.270;9.434;2023-02-12T15:15:17;101623.81;;;9.18;77.94
16664;BME280;8445;51.270;9.434;2023-02-12T15:18:10;101613.28;;;9.16;78.27
16664;BME280;8445;51.270;9.434;2023-02-12T15:20:44;101616.03;;;9.13;78.41
16664;BME280;8445;51.270;9.434;2023-02-12T15:23:43;101621.38;;;9.12;78.43
16664;BME280;8445;51.270;9.434;2023-02-12T15:26:17;101620.78;;;9.03;78.43
16664;BME280;8445;51.270;9.434;2023-02-12T15:28:49;101621.78;;;8.99;78.67
16664;BME280;8445;51.270;9.434;2023-02-12T15:31:18;101623.63;;;8.97;78.48
16664;BME280;8445;51.270;9.434;2023-02-12T15:33:47;101623.69;;;8.96;78.52
16664;BME280;8445;51.270;9.434;2023-02-12T15:36:19;101623.69;;;8.96;78.61
16664;BME280;8445;51.270;9.434;2023-02-12T15:38:55;101620.16;;;8.95;78.83
16664;BME280;8445;51.270;9.434;2023-02-12T15:44:15;101616.81;;;8.90;78.59
16664;BME280;8445;51.270;9.434;2023-02-12T15:46:53;101622.97;;;8.90;78.57
16664;BME280;8445;51.270;9.434;2023-02-12T15:49:34;101619.44;;;8.90;78.60
16664;BME280;8445;51.270;9.434;2023-02-12T15:52:13;101616.00;;;8.88;78.41
16664;BME280;8445;51.270;9.434;2023-02-12T15:54:43;101608.06;;;8.88;78.30
16664;BME280;8445;51.270;9.434;2023-02-12T15:57:17;101610.94;;;8.82;78.46
16664;BME280;8445;51.270;9.434;2023-02-12T15:59:49;101615.41;;;8.80;78.46